sensor_id;sensor_type;location;lat;lon;timestamp;P1;durP1;ratioP1;P2;durP2;ratioP2
50301;SDS011;36550;50.472;19.744;2024-03-02T00:01:33;70.30;;;32.90;;
50301;SDS011;36550;50.472;19.744;2024-03-02T00:04:17;66.10;;;31.80;;
50301;SDS011;36550;50.472;19.744;2024-03-02T00:07:01;61.70;;;31.80;;
50301;SDS011;36550;50.472;19.744;2024-03-02T00:09:45;61.50;;;30.60;;
50301;SDS011;36550;50.472;19.744;2024-03-02T00:12:30;65.40;;;31.40;;
50301;SDS011;36550;50.472;19.744;2024-03-02T00:18:05;63.00;;;32.40;;
50301;SDS011;36550;50.472;19.744;2024-03-02T00:20:54;65.00;;;36.50;;
50301;SDS011;36550;50.472;19.744;2024-03-02T00:23:40;66.80;;;37.50;;
50301;SDS011;36550;50.472;19.744;2024-03-02T00:26:25;69.30;;;34.10;;
50301;SDS011;36550;50.472;19.744;2024-03-02T00:29:10;69.00;;;34.90;;
50301;SDS011;36550;50.472;19.744;2024-03-02T00:31:59;67.60;;;35.00;;
50301;SDS011;36550;50.472;19.744;2024-03-02T00:34:45;65.70;;;34.40;;
50301;SDS011;36550;50.472;19.744;2024-03-02T00:37:29;66.80;;;32.80;;
50301;SDS011;36550;50.472;19.744;2024-03-02T00:40:13;72.10;;;32.40;;
50301;SDS011;36550;50.472;19.744;2024-03-02T00:42:58;63.40;;;32.90;;
50301;SDS011;36550;50.472;19.744;2024-03-02T00:45:43;63.60;;;31.60;;
50301;SDS011;36550;50.472;19.744;2024-03-02T00:48:27;60.90;;;32.20;;
50301;SDS011;36550;50.472;19.744;2024-03-02T00:51:11;70.00;;;34.30;;
50301;SDS011;36550;50.472;19.744;2024-03-02T00:53:58;66.30;;;34.90;;
50301;SDS011;36550;50.472;19.744;2024-03-02T00:56:44;61.20;;;33.10;;
50301;SDS011;36550;50.472;19.744;2024-03-02T00:59:28;67.00;;;34.20;;
50301;SDS011;36550;50.472;19.744;2024-03-02T01:02:13;61.30;;;31.00;;
50301;SDS011;36550;50.472;19.744;2024-03-02T01:04:58;69.30;;;32.60;;
50301;SDS011;36550;50.472;19.744;2024-03-02T01:07:42;64.20;;;31.40;;
50301;SDS011;36550;50.472;19.744;2024-03-02T01:10:26;60.80;;;31.60;;
50301;SDS011;36550;50.472;19.744;2024-03-02T01:13:10;61.90;;;32.40;;
50301;SDS011;36550;50.472;19.744;2024-03-02T01:15:54;71.80;;;34.00;;
50301;SDS011;36550;50.472;19.744;2024-03-02T01:18:39;63.10;;;32.10;;
50301;SDS011;36550;50.472;19.744;2024-03-02T01:21:23;65.40;;;32.50;;
50301;SDS011;36550;50.472;19.744;2024-03-02T01:24:07;62.70;;;33.90;;
50301;SDS011;36550;50.472;19.744;2024-03-02T01:26:51;67.40;;;31.50;;
50301;SDS011;36550;50.472;19.744;2024-03-02T01:29:36;61.70;;;30.00;;
50301;SDS011;36550;50.472;19.744;2024-03-02T01:32:20;58.80;;;31.10;;
50301;SDS011;36550;50.472;19.744;2024-03-02T01:35:05;67.10;;;32.70;;
50301;SDS011;36550;50.472;19.744;2024-03-02T01:37:50;64.20;;;31.20;;
50301;SDS011;36550;50.472;19.744;2024-03-02T01:40:34;57.50;;;30.20;;
50301;SDS011;36550;50.472;19.744;2024-03-02T01:43:19;58.80;;;30.40;;
50301;SDS011;36550;50.472;19.744;2024-03-02T01:46:03;62.80;;;31.50;;
50301;SDS011;36550;50.472;19.744;2024-03-02T01:48:47;63.80;;;33.10;;
50301;SDS011;36550;50.472;19.744;2024-03-02T01:51:31;68.70;;;32.80;;
50301;SDS011;36550;50.472;19.744;2024-03-02T01:54:16;62.70;;;30.90;;
50301;SDS011;36550;50.472;19.744;2024-03-02T01:57:00;57.60;;;30.50;;
50301;SDS011;36550;50.472;19.744;2024-03-02T01:59:45;62.30;;;32.00;;
50301;SDS011;36550;50.472;19.744;2024-03-02T02:02:31;66.80;;;31.60;;
50301;SDS011;36550;50.472;19.744;2024-03-02T02:05:15;61.80;;;32.20;;
50301;SDS011;36550;50.472;19.744;2024-03-02T02:08:00;59.40;;;31.30;;
50301;SDS011;36550;50.472;19.744;2024-03-02T02:10:45;62.90;;;32.30;;
50301;SDS011;36550;50.472;19.744;2024-03-02T02:13:29;60.30;;;30.70;;
50301;SDS011;36550;50.472;19.744;2024-03-02T02:16:14;62.10;;;30.30;;
50301;SDS011;36550;50.472;19.744;2024-03-02T02:18:58;56.30;;;30.70;;
50301;SDS011;36550;50.472;19.744;2024-03-02T02:21:42;62.70;;;32.30;;
50301;SDS011;36550;50.472;19.744;2024-03-02T02:24:27;60.90;;;31.40;;
50301;SDS011;36550;50.472;19.744;2024-03-02T02:27:11;60.70;;;33.50;;
50301;SDS011;36550;50.472;19.744;2024-03-02T02:29:58;55.20;;;30.50;;
50301;SDS011;36550;50.472;19.744;2024-03-02T02:32:45;67.10;;;33.70;;
50301;SDS011;36550;50.472;19.744;2024-03-02T02:35:29;62.90;;;34.50;;
50301;SDS011;36550;50.472;19.744;2024-03-02T02:38:13;60.20;;;33.40;;
50301;SDS011;36550;50.472;19.744;2024-03-02T02:40:58;64.40;;;33.40;;
50301;SDS011;36550;50.472;19.744;2024-03-02T02:43:42;62.50;;;33.40;;
50301;SDS011;36550;50.472;19.744;2024-03-02T02:46:27;58.80;;;31.00;;
50301;SDS011;36550;50.472;19.744;2024-03-02T02:49:11;55.10;;;29.70;;
50301;SDS011;36550;50.472;19.744;2024-03-02T02:51:55;59.20;;;29.90;;
50301;SDS011;36550;50.472;19.744;2024-03-02T02:54:39;57.50;;;29.60;;
50301;SDS011;36550;50.472;19.744;2024-03-02T02:57:23;55.70;;;30.50;;
50301;SDS011;36550;50.472;19.744;2024-03-02T03:00:08;57.90;;;31.20;;
50301;SDS011;36550;50.472;19.744;2024-03-02T03:02:54;58.30;;;29.40;;
50301;SDS011;36550;50.472;19.744;2024-03-02T03:05:38;54.20;;;28.90;;
50301;SDS011;36550;50.472;19.744;2024-03-02T03:08:22;53.70;;;27.90;;
50301;SDS011;36550;50.472;19.744;2024-03-02T03:11:07;54.50;;;27.80;;
50301;SDS011;36550;50.472;19.744;2024-03-02T03:13:51;49.10;;;26.30;;
50301;SDS011;36550;50.472;19.744;2024-03-02T03:16:35;56.10;;;28.40;;
50301;SDS011;36550;50.472;19.744;2024-03-02T03:19:19;55.10;;;28.70;;
50301;SDS011;36550;50.472;19.744;2024-03-02T03:22:03;53.90;;;27.80;;
50301;SDS011;36550;50.472;19.744;2024-03-02T03:24:47;54.10;;;28.10;;
50301;SDS011;36550;50.472;19.744;2024-03-02T03:27:31;53.30;;;28.30;;
50301;SDS011;36550;50.472;19.744;2024-03-02T03:30:16;51.70;;;27.40;;
50301;SDS011;36550;50.472;19.744;2024-03-02T03:33:00;56.50;;;28.60;;
50301;SDS011;36550;50.472;19.744;2024-03-02T03:35:44;51.80;;;28.30;;
50301;SDS011;36550;50.472;19.744;2024-03-02T03:38:29;54.90;;;28.90;;
50301;SDS011;36550;50.472;19.744;2024-03-02T03:41:14;55.20;;;28.50;;
50301;SDS011;36550;50.472;19.744;2024-03-02T03:43:58;56.60;;;28.70;;
50301;SDS011;36550;50.472;19.744;2024-03-02T03:46:42;61.00;;;30.00;;
50301;SDS011;36550;50.472;19.744;2024-03-02T03:49:27;53.80;;;29.50;;
50301;SDS011;36550;50.472;19.744;2024-03-02T03:52:11;55.00;;;28.80;;
50301;SDS011;36550;50.472;19.744;2024-03-02T03:54:55;55.80;;;29.00;;
50301;SDS011;36550;50.472;19.744;2024-03-02T03:57:39;55.50;;;30.10;;
50301;SDS011;36550;50.472;19.744;2024-03-02T04:00:23;52.40;;;29.30;;
50301;SDS011;36550;50.472;19.744;2024-03-02T04:03:07;57.40;;;31.10;;
50301;SDS011;36550;50.472;19.744;2024-03-02T04:05:51;54.90;;;30.20;;
50301;SDS011;36550;50.472;19.744;2024-03-02T04:08:36;58.60;;;29.30;;
50301;SDS011;36550;50.472;19.744;2024-03-02T04:11:20;60.50;;;30.50;;
50301;SDS011;36550;50.472;19.744;2024-03-02T04:14:04;55.00;;;31.90;;
50301;SDS011;36550;50.472;19.744;2024-03-02T04:16:50;57.30;;;33.10;;
50301;SDS011;36550;50.472;19.744;2024-03-02T04:19:34;64.60;;;37.10;;
50301;SDS011;36550;50.472;19.744;2024-03-02T04:22:18;55.70;;;31.80;;
50301;SDS011;36550;50.472;19.744;2024-03-02T04:25:03;54.20;;;29.40;;
50301;SDS011;36550;50.472;19.744;2024-03-02T04:27:48;53.10;;;27.00;;
50301;SDS011;36550;50.472;19.744;2024-03-02T04:30:32;50.10;;;27.00;;
50301;SDS011;36550;50.472;19.744;2024-03-02T04:33:17;50.60;;;27.60;;
50301;SDS011;36550;50.472;19.744;2024-03-02T04:36:00;73.40;;;37.40;;
50301;SDS011;36550;50.472;19.744;2024-03-02T04:38:45;64.60;;;34.10;;
50301;SDS011;36550;50.472;19.744;2024-03-02T04:41:29;70.40;;;34.70;;
50301;SDS011;36550;50.472;19.744;2024-03-02T04:44:13;58.80;;;29.80;;
50301;SDS011;36550;50.472;19.744;2024-03-02T04:46:57;59.10;;;29.20;;
50301;SDS011;36550;50.472;19.744;2024-03-02T04:49:42;55.20;;;29.80;;
50301;SDS011;36550;50.472;19.744;2024-03-02T04:52:27;56.00;;;29.20;;
50301;SDS011;36550;50.472;19.744;2024-03-02T04:55:11;54.40;;;28.60;;
50301;SDS011;36550;50.472;19.744;2024-03-02T04:58:14;48.60;;;26.30;;
50301;SDS011;36550;50.472;19.744;2024-03-02T05:00:58;48.80;;;25.50;;
50301;SDS011;36550;50.472;19.744;2024-03-02T05:03:42;49.30;;;26.90;;
50301;SDS011;36550;50.472;19.744;2024-03-02T05:06:27;60.10;;;29.60;;
50301;SDS011;36550;50.472;19.744;2024-03-02T05:09:11;57.70;;;29.40;;
50301;SDS011;36550;50.472;19.744;2024-03-02T05:11:55;57.20;;;29.90;;
50301;SDS011;36550;50.472;19.744;2024-03-02T05:14:58;60.30;;;28.90;;
50301;SDS011;36550;50.472;19.744;2024-03-02T05:17:42;58.10;;;28.10;;
50301;SDS011;36550;50.472;19.744;2024-03-02T05:20:26;52.00;;;27.60;;
50301;SDS011;36550;50.472;19.744;2024-03-02T05:23:10;54.40;;;27.60;;
50301;SDS011;36550;50.472;19.744;2024-03-02T05:25:55;55.30;;;27.80;;
50301;SDS011;36550;50.472;19.744;2024-03-02T05:28:39;52.30;;;28.20;;
50301;SDS011;36550;50.472;19.744;2024-03-02T05:31:24;50.10;;;28.70;;
50301;SDS011;36550;50.472;19.744;2024-03-02T05:34:08;57.20;;;28.20;;
50301;SDS011;36550;50.472;19.744;2024-03-02T05:36:52;62.60;;;29.20;;
50301;SDS011;36550;50.472;19.744;2024-03-02T05:39:37;65.50;;;31.20;;
50301;SDS011;36550;50.472;19.744;2024-03-02T05:42:20;60.80;;;28.20;;
50301;SDS011;36550;50.472;19.744;2024-03-02T05:45:05;56.50;;;28.70;;
50301;SDS011;36550;50.472;19.744;2024-03-02T05:47:49;63.20;;;30.70;;
50301;SDS011;36550;50.472;19.744;2024-03-02T05:50:33;75.20;;;33.50;;
50301;SDS011;36550;50.472;19.744;2024-03-02T05:53:17;74.60;;;32.00;;
50301;SDS011;36550;50.472;19.744;2024-03-02T05:56:02;71.70;;;34.20;;
50301;SDS011;36550;50.472;19.744;2024-03-02T05:58:48;63.70;;;30.20;;
50301;SDS011;36550;50.472;19.744;2024-03-02T06:01:42;64.00;;;30.00;;
50301;SDS011;36550;50.472;19.744;2024-03-02T06:04:26;67.00;;;30.90;;
50301;SDS011;36550;50.472;19.744;2024-03-02T06:07:10;73.10;;;33.30;;
50301;SDS011;36550;50.472;19.744;2024-03-02T06:09:55;77.80;;;34.10;;
50301;SDS011;36550;50.472;19.744;2024-03-02T06:12:39;70.70;;;32.30;;
50301;SDS011;36550;50.472;19.744;2024-03-02T06:15:23;62.60;;;30.20;;
50301;SDS011;36550;50.472;19.744;2024-03-02T06:18:07;62.00;;;31.50;;
50301;SDS011;36550;50.472;19.744;2024-03-02T06:20:51;47.00;;;25.90;;
50301;SDS011;36550;50.472;19.744;2024-03-02T06:23:35;50.30;;;26.80;;
50301;SDS011;36550;50.472;19.744;2024-03-02T06:26:20;50.30;;;28.20;;
50301;SDS011;36550;50.472;19.744;2024-03-02T06:29:04;54.90;;;29.20;;
50301;SDS011;36550;50.472;19.744;2024-03-02T06:31:48;58.90;;;30.40;;
50301;SDS011;36550;50.472;19.744;2024-03-02T06:34:32;64.40;;;33.80;;
50301;SDS011;36550;50.472;19.744;2024-03-02T06:37:16;67.20;;;33.90;;
50301;SDS011;36550;50.472;19.744;2024-03-02T06:40:00;67.10;;;33.40;;
50301;SDS011;36550;50.472;19.744;2024-03-02T06:42:45;65.40;;;32.50;;
50301;SDS011;36550;50.472;19.744;2024-03-02T06:45:29;57.90;;;31.60;;
50301;SDS011;36550;50.472;19.744;2024-03-02T06:48:14;63.80;;;32.90;;
50301;SDS011;36550;50.472;19.744;2024-03-02T06:51:02;66.70;;;35.50;;
50301;SDS011;36550;50.472;19.744;2024-03-02T06:53:47;58.40;;;32.10;;
50301;SDS011;36550;50.472;19.744;2024-03-02T06:56:31;63.20;;;31.80;;
50301;SDS011;36550;50.472;19.744;2024-03-02T06:59:16;54.20;;;30.70;;
50301;SDS011;36550;50.472;19.744;2024-03-02T07:02:00;56.00;;;30.10;;
50301;SDS011;36550;50.472;19.744;2024-03-02T07:04:46;52.10;;;28.40;;
50301;SDS011;36550;50.472;19.744;2024-03-02T07:07:30;48.00;;;27.30;;
50301;SDS011;36550;50.472;19.744;2024-03-02T07:10:15;47.90;;;27.80;;
50301;SDS011;36550;50.472;19.744;2024-03-02T07:13:00;82.10;;;47.70;;
50301;SDS011;36550;50.472;19.744;2024-03-02T07:15:44;142.60;;;90.40;;
50301;SDS011;36550;50.472;19.744;2024-03-02T07:18:47;173.10;;;108.80;;
50301;SDS011;36550;50.472;19.744;2024-03-02T07:21:35;147.70;;;90.80;;
50301;SDS011;36550;50.472;19.744;2024-03-02T07:24:20;146.60;;;87.80;;
50301;SDS011;36550;50.472;19.744;2024-03-02T07:27:04;160.80;;;95.80;;
50301;SDS011;36550;50.472;19.744;2024-03-02T07:29:48;85.20;;;46.10;;
50301;SDS011;36550;50.472;19.744;2024-03-02T07:32:32;68.50;;;37.60;;
50301;SDS011;36550;50.472;19.744;2024-03-02T07:35:17;63.00;;;34.00;;
50301;SDS011;36550;50.472;19.744;2024-03-02T07:38:02;60.50;;;33.80;;
50301;SDS011;36550;50.472;19.744;2024-03-02T07:40:46;66.50;;;35.30;;
50301;SDS011;36550;50.472;19.744;2024-03-02T07:43:31;72.70;;;38.80;;
50301;SDS011;36550;50.472;19.744;2024-03-02T07:46:17;95.00;;;42.30;;
50301;SDS011;36550;50.472;19.744;2024-03-02T07:49:01;62.10;;;32.50;;
50301;SDS011;36550;50.472;19.744;2024-03-02T07:51:45;47.20;;;27.50;;
50301;SDS011;36550;50.472;19.744;2024-03-02T07:54:29;50.40;;;27.30;;
50301;SDS011;36550;50.472;19.744;2024-03-02T07:57:14;48.50;;;27.70;;
50301;SDS011;36550;50.472;19.744;2024-03-02T07:59:58;50.70;;;28.80;;
50301;SDS011;36550;50.472;19.744;2024-03-02T08:02:43;51.60;;;28.50;;
50301;SDS011;36550;50.472;19.744;2024-03-02T08:05:27;43.30;;;26.20;;
50301;SDS011;36550;50.472;19.744;2024-03-02T08:08:12;44.20;;;25.80;;
50301;SDS011;36550;50.472;19.744;2024-03-02T08:10:56;44.60;;;27.00;;
50301;SDS011;36550;50.472;19.744;2024-03-02T08:13:40;51.50;;;29.50;;
50301;SDS011;36550;50.472;19.744;2024-03-02T08:16:24;58.20;;;31.60;;
50301;SDS011;36550;50.472;19.744;2024-03-02T08:19:09;46.80;;;25.70;;
50301;SDS011;36550;50.472;19.744;2024-03-02T08:21:53;65.20;;;33.60;;
50301;SDS011;36550;50.472;19.744;2024-03-02T08:24:37;78.40;;;36.70;;
50301;SDS011;36550;50.472;19.744;2024-03-02T08:27:22;66.40;;;35.60;;
50301;SDS011;36550;50.472;19.744;2024-03-02T08:30:06;46.80;;;26.80;;
50301;SDS011;36550;50.472;19.744;2024-03-02T08:32:52;45.50;;;26.50;;
50301;SDS011;36550;50.472;19.744;2024-03-02T08:35:36;45.80;;;25.20;;
50301;SDS011;36550;50.472;19.744;2024-03-02T08:38:20;45.50;;;26.40;;
50301;SDS011;36550;50.472;19.744;2024-03-02T08:41:05;50.80;;;27.60;;
50301;SDS011;36550;50.472;19.744;2024-03-02T08:43:49;47.10;;;27.90;;
50301;SDS011;36550;50.472;19.744;2024-03-02T08:46:33;52.50;;;29.80;;
50301;SDS011;36550;50.472;19.744;2024-03-02T08:49:17;55.20;;;29.90;;
50301;SDS011;36550;50.472;19.744;2024-03-02T08:52:02;51.70;;;28.60;;
50301;SDS011;36550;50.472;19.744;2024-03-02T08:54:46;52.00;;;28.10;;
50301;SDS011;36550;50.472;19.744;2024-03-02T08:57:30;51.20;;;28.80;;
50301;SDS011;36550;50.472;19.744;2024-03-02T09:00:15;50.50;;;29.40;;
50301;SDS011;36550;50.472;19.744;2024-03-02T09:05:45;48.50;;;27.50;;
50301;SDS011;36550;50.472;19.744;2024-03-02T09:08:29;46.60;;;26.90;;
50301;SDS011;36550;50.472;19.744;2024-03-02T09:11:14;46.60;;;26.80;;
50301;SDS011;36550;50.472;19.744;2024-03-02T09:13:58;45.50;;;27.80;;
50301;SDS011;36550;50.472;19.744;2024-03-02T09:16:42;50.70;;;28.30;;
50301;SDS011;36550;50.472;19.744;2024-03-02T09:19:26;54.10;;;29.00;;
50301;SDS011;36550;50.472;19.744;2024-03-02T09:22:10;72.30;;;39.60;;
50301;SDS011;36550;50.472;19.744;2024-03-02T09:24:54;47.60;;;27.50;;
50301;SDS011;36550;50.472;19.744;2024-03-02T09:27:39;48.80;;;26.90;;
50301;SDS011;36550;50.472;19.744;2024-03-02T09:30:23;47.90;;;28.10;;
50301;SDS011;36550;50.472;19.744;2024-03-02T09:33:07;51.00;;;27.40;;
50301;SDS011;36550;50.472;19.744;2024-03-02T09:35:51;51.30;;;27.90;;
50301;SDS011;36550;50.472;19.744;2024-03-02T09:38:35;45.70;;;25.70;;
50301;SDS011;36550;50.472;19.744;2024-03-02T09:41:19;47.30;;;27.50;;
50301;SDS011;36550;50.472;19.744;2024-03-02T09:44:04;43.30;;;26.20;;
50301;SDS011;36550;50.472;19.744;2024-03-02T09:46:49;47.40;;;26.80;;
50301;SDS011;36550;50.472;19.744;2024-03-02T09:49:34;48.00;;;26.90;;
50301;SDS011;36550;50.472;19.744;2024-03-02T09:52:18;46.00;;;26.20;;
50301;SDS011;36550;50.472;19.744;2024-03-02T09:55:03;42.30;;;25.20;;
50301;SDS011;36550;50.472;19.744;2024-03-02T09:57:49;43.40;;;25.20;;
50301;SDS011;36550;50.472;19.744;2024-03-02T10:00:33;48.70;;;27.30;;
50301;SDS011;36550;50.472;19.744;2024-03-02T10:03:18;63.90;;;37.70;;
50301;SDS011;36550;50.472;19.744;2024-03-02T10:06:22;48.10;;;30.10;;
50301;SDS011;36550;50.472;19.744;2024-03-02T10:09:07;65.70;;;38.80;;
50301;SDS011;36550;50.472;19.744;2024-03-02T10:11:51;51.20;;;30.40;;
50301;SDS011;36550;50.472;19.744;2024-03-02T10:14:36;47.00;;;26.70;;
50301;SDS011;36550;50.472;19.744;2024-03-02T10:17:20;53.30;;;32.40;;
50301;SDS011;36550;50.472;19.744;2024-03-02T10:23:15;44.20;;;26.80;;
50301;SDS011;36550;50.472;19.744;2024-03-02T10:26:01;49.00;;;28.30;;
50301;SDS011;36550;50.472;19.744;2024-03-02T10:28:48;49.80;;;28.10;;
50301;SDS011;36550;50.472;19.744;2024-03-02T10:31:32;43.80;;;26.50;;
50301;SDS011;36550;50.472;19.744;2024-03-02T10:34:16;41.80;;;22.40;;
50301;SDS011;36550;50.472;19.744;2024-03-02T10:37:01;43.70;;;24.30;;
50301;SDS011;36550;50.472;19.744;2024-03-02T10:39:46;43.60;;;24.80;;
50301;SDS011;36550;50.472;19.744;2024-03-02T10:42:30;42.50;;;23.70;;
50301;SDS011;36550;50.472;19.744;2024-03-02T10:45:15;54.20;;;29.40;;
50301;SDS011;36550;50.472;19.744;2024-03-02T10:48:00;41.70;;;23.20;;
50301;SDS011;36550;50.472;19.744;2024-03-02T10:50:46;38.50;;;23.30;;
50301;SDS011;36550;50.472;19.744;2024-03-02T10:53:30;48.80;;;27.20;;
50301;SDS011;36550;50.472;19.744;2024-03-02T10:56:16;44.90;;;25.50;;
50301;SDS011;36550;50.472;19.744;2024-03-02T11:02:15;38.10;;;25.00;;
50301;SDS011;36550;50.472;19.744;2024-03-02T11:07:51;50.10;;;29.90;;
50301;SDS011;36550;50.472;19.744;2024-03-02T11:13:32;54.60;;;35.40;;
50301;SDS011;36550;50.472;19.744;2024-03-02T11:16:33;44.30;;;24.60;;
50301;SDS011;36550;50.472;19.744;2024-03-02T11:19:19;48.40;;;30.20;;
50301;SDS011;36550;50.472;19.744;2024-03-02T11:22:03;50.10;;;32.70;;
50301;SDS011;36550;50.472;19.744;2024-03-02T11:24:48;52.90;;;29.80;;
50301;SDS011;36550;50.472;19.744;2024-03-02T11:33:22;44.70;;;31.20;;
50301;SDS011;36550;50.472;19.744;2024-03-02T11:36:08;41.10;;;24.70;;
50301;SDS011;36550;50.472;19.744;2024-03-02T11:38:53;48.20;;;29.40;;
50301;SDS011;36550;50.472;19.744;2024-03-02T11:41:39;41.30;;;25.20;;
50301;SDS011;36550;50.472;19.744;2024-03-02T11:44:30;45.90;;;27.10;;
50301;SDS011;36550;50.472;19.744;2024-03-02T11:47:17;45.80;;;27.40;;
50301;SDS011;36550;50.472;19.744;2024-03-02T11:50:01;40.90;;;26.10;;
50301;SDS011;36550;50.472;19.744;2024-03-02T11:52:45;49.80;;;28.60;;
50301;SDS011;36550;50.472;19.744;2024-03-02T11:55:30;51.40;;;26.70;;
50301;SDS011;36550;50.472;19.744;2024-03-02T11:58:15;64.40;;;34.50;;
50301;SDS011;36550;50.472;19.744;2024-03-02T12:01:01;50.90;;;28.90;;
50301;SDS011;36550;50.472;19.744;2024-03-02T12:03:46;43.00;;;26.40;;
50301;SDS011;36550;50.472;19.744;2024-03-02T12:06:31;43.70;;;25.40;;
50301;SDS011;36550;50.472;19.744;2024-03-02T12:09:16;41.90;;;25.40;;
50301;SDS011;36550;50.472;19.744;2024-03-02T12:12:08;45.10;;;26.80;;
50301;SDS011;36550;50.472;19.744;2024-03-02T12:14:54;48.50;;;26.40;;
50301;SDS011;36550;50.472;19.744;2024-03-02T12:17:39;46.00;;;27.10;;
50301;SDS011;36550;50.472;19.744;2024-03-02T12:20:24;41.60;;;27.00;;
50301;SDS011;36550;50.472;19.744;2024-03-02T12:23:09;44.10;;;25.20;;
50301;SDS011;36550;50.472;19.744;2024-03-02T12:25:53;39.30;;;24.40;;
50301;SDS011;36550;50.472;19.744;2024-03-02T12:28:38;39.20;;;25.10;;
50301;SDS011;36550;50.472;19.744;2024-03-02T12:31:23;39.80;;;23.90;;
50301;SDS011;36550;50.472;19.744;2024-03-02T12:34:07;37.20;;;23.10;;
50301;SDS011;36550;50.472;19.744;2024-03-02T12:36:52;44.30;;;24.60;;
50301;SDS011;36550;50.472;19.744;2024-03-02T12:39:37;43.30;;;26.80;;
50301;SDS011;36550;50.472;19.744;2024-03-02T12:42:21;40.90;;;24.80;;
50301;SDS011;36550;50.472;19.744;2024-03-02T12:45:06;42.30;;;25.50;;
50301;SDS011;36550;50.472;19.744;2024-03-02T12:47:51;45.00;;;27.50;;
50301;SDS011;36550;50.472;19.744;2024-03-02T12:50:35;45.10;;;27.00;;
50301;SDS011;36550;50.472;19.744;2024-03-02T12:53:21;57.90;;;31.10;;
50301;SDS011;36550;50.472;19.744;2024-03-02T12:56:05;51.50;;;29.80;;
50301;SDS011;36550;50.472;19.744;2024-03-02T12:58:55;48.80;;;29.50;;
50301;SDS011;36550;50.472;19.744;2024-03-02T13:01:49;55.10;;;33.70;;
50301;SDS011;36550;50.472;19.744;2024-03-02T13:04:34;53.10;;;31.90;;
50301;SDS011;36550;50.472;19.744;2024-03-02T13:07:18;54.20;;;30.70;;
50301;SDS011;36550;50.472;19.744;2024-03-02T13:10:04;57.20;;;31.60;;
50301;SDS011;36550;50.472;19.744;2024-03-02T13:12:50;80.30;;;48.40;;
50301;SDS011;36550;50.472;19.744;2024-03-02T13:15:34;70.80;;;42.30;;
50301;SDS011;36550;50.472;19.744;2024-03-02T13:18:18;60.80;;;36.70;;
50301;SDS011;36550;50.472;19.744;2024-03-02T13:21:03;58.20;;;32.60;;
50301;SDS011;36550;50.472;19.744;2024-03-02T13:23:48;54.50;;;35.50;;
50301;SDS011;36550;50.472;19.744;2024-03-02T13:26:32;59.40;;;34.70;;
50301;SDS011;36550;50.472;19.744;2024-03-02T13:29:16;47.40;;;27.80;;
50301;SDS011;36550;50.472;19.744;2024-03-02T13:32:00;58.60;;;34.10;;
50301;SDS011;36550;50.472;19.744;2024-03-02T13:34:44;49.00;;;31.30;;
50301;SDS011;36550;50.472;19.744;2024-03-02T13:37:28;46.60;;;29.30;;
50301;SDS011;36550;50.472;19.744;2024-03-02T13:40:12;51.90;;;30.00;;
50301;SDS011;36550;50.472;19.744;2024-03-02T13:43:02;59.90;;;33.60;;
50301;SDS011;36550;50.472;19.744;2024-03-02T13:45:47;50.70;;;30.40;;
50301;SDS011;36550;50.472;19.744;2024-03-02T13:48:31;60.70;;;34.70;;
50301;SDS011;36550;50.472;19.744;2024-03-02T13:51:16;55.00;;;32.30;;
50301;SDS011;36550;50.472;19.744;2024-03-02T13:54:00;58.20;;;35.60;;
50301;SDS011;36550;50.472;19.744;2024-03-02T13:56:44;62.70;;;39.00;;
50301;SDS011;36550;50.472;19.744;2024-03-02T13:59:28;50.80;;;29.20;;
50301;SDS011;36550;50.472;19.744;2024-03-02T14:02:12;42.80;;;24.90;;
50301;SDS011;36550;50.472;19.744;2024-03-02T14:04:56;45.90;;;25.50;;
50301;SDS011;36550;50.472;19.744;2024-03-02T14:07:41;44.00;;;24.80;;
50301;SDS011;36550;50.472;19.744;2024-03-02T14:10:27;50.20;;;29.00;;
50301;SDS011;36550;50.472;19.744;2024-03-02T14:13:12;92.80;;;50.30;;
50301;SDS011;36550;50.472;19.744;2024-03-02T14:15:56;69.00;;;37.80;;
50301;SDS011;36550;50.472;19.744;2024-03-02T14:18:41;55.90;;;30.10;;
50301;SDS011;36550;50.472;19.744;2024-03-02T14:21:26;60.30;;;38.30;;
50301;SDS011;36550;50.472;19.744;2024-03-02T14:24:10;51.20;;;29.10;;
50301;SDS011;36550;50.472;19.744;2024-03-02T14:26:54;47.60;;;29.40;;
50301;SDS011;36550;50.472;19.744;2024-03-02T14:29:38;61.50;;;33.00;;
50301;SDS011;36550;50.472;19.744;2024-03-02T14:32:23;99.90;;;63.90;;
50301;SDS011;36550;50.472;19.744;2024-03-02T14:35:08;80.90;;;44.00;;
50301;SDS011;36550;50.472;19.744;2024-03-02T14:37:56;91.60;;;47.60;;
50301;SDS011;36550;50.472;19.744;2024-03-02T14:43:25;98.30;;;52.70;;
50301;SDS011;36550;50.472;19.744;2024-03-02T14:46:09;77.70;;;39.10;;
50301;SDS011;36550;50.472;19.744;2024-03-02T14:48:55;59.10;;;31.20;;
50301;SDS011;36550;50.472;19.744;2024-03-02T14:51:39;139.10;;;84.00;;
50301;SDS011;36550;50.472;19.744;2024-03-02T14:54:23;68.80;;;39.10;;
50301;SDS011;36550;50.472;19.744;2024-03-02T14:57:08;51.30;;;28.10;;
50301;SDS011;36550;50.472;19.744;2024-03-02T14:59:52;59.60;;;32.00;;
50301;SDS011;36550;50.472;19.744;2024-03-02T15:02:38;53.70;;;29.30;;
50301;SDS011;36550;50.472;19.744;2024-03-02T15:05:22;52.90;;;27.50;;
50301;SDS011;36550;50.472;19.744;2024-03-02T15:08:06;53.30;;;30.50;;
50301;SDS011;36550;50.472;19.744;2024-03-02T15:10:51;52.30;;;30.40;;
50301;SDS011;36550;50.472;19.744;2024-03-02T15:13:36;59.80;;;34.60;;
50301;SDS011;36550;50.472;19.744;2024-03-02T15:16:20;47.00;;;28.20;;
50301;SDS011;36550;50.472;19.744;2024-03-02T15:19:04;58.40;;;32.60;;
50301;SDS011;36550;50.472;19.744;2024-03-02T15:21:48;67.80;;;36.10;;
50301;SDS011;36550;50.472;19.744;2024-03-02T15:24:32;52.00;;;28.60;;
50301;SDS011;36550;50.472;19.744;2024-03-02T15:27:16;50.50;;;27.90;;
50301;SDS011;36550;50.472;19.744;2024-03-02T15:30:00;59.40;;;29.60;;
50301;SDS011;36550;50.472;19.744;2024-03-02T15:32:44;65.40;;;33.70;;
50301;SDS011;36550;50.472;19.744;2024-03-02T15:35:29;64.40;;;32.90;;
50301;SDS011;36550;50.472;19.744;2024-03-02T15:38:13;91.70;;;48.80;;
50301;SDS011;36550;50.472;19.744;2024-03-02T15:40:59;89.10;;;46.00;;
50301;SDS011;36550;50.472;19.744;2024-03-02T15:43:43;75.80;;;38.80;;
50301;SDS011;36550;50.472;19.744;2024-03-02T15:46:27;61.40;;;32.70;;
50301;SDS011;36550;50.472;19.744;2024-03-02T15:49:11;67.50;;;37.80;;
50301;SDS011;36550;50.472;19.744;2024-03-02T15:51:55;71.40;;;38.20;;
50301;SDS011;36550;50.472;19.744;2024-03-02T15:54:39;121.90;;;65.30;;
50301;SDS011;36550;50.472;19.744;2024-03-02T15:57:24;126.10;;;59.60;;
50301;SDS011;36550;50.472;19.744;2024-03-02T16:00:09;131.90;;;62.60;;
50301;SDS011;36550;50.472;19.744;2024-03-02T16:02:53;92.40;;;45.80;;
50301;SDS011;36550;50.472;19.744;2024-03-02T16:05:38;83.60;;;44.50;;
50301;SDS011;36550;50.472;19.744;2024-03-02T16:08:22;112.70;;;62.30;;
50301;SDS011;36550;50.472;19.744;2024-03-02T16:11:06;118.30;;;59.70;;
50301;SDS011;36550;50.472;19.744;2024-03-02T16:13:50;99.80;;;50.20;;
50301;SDS011;36550;50.472;19.744;2024-03-02T16:16:35;165.50;;;72.30;;